首页
METAR-TAF:

METAR-TAF

机场 :

多哈国际机场

多哈, 卡塔尔

纬度: 25-15-40N, 经度: 051-33-54E, 海拔: 11米

当前天气观测

该预报发布于18分钟前的14:00 UTC
风速8节,风向
温度 26°C
湿度 74%
气压 1017 hPa
能见度10公里或以上
1500米以下无云,无积雨云

METAR: OTBD 031400Z 01008KT CAVOK 26/21 Q1017 NOSIG

时间: 17:18 (14:18 UTC)

预报

该预报发布于3小时和15分钟前的11:03 UTC
预报有效从03日的 12点(UTC)到 04日的 18点(UTC)
风速9节,风向东北
能見度: 8000
成为
从 03日的 18点(UTC)到 03日的 20点(UTC)
风速7节,风向西北
几率 30% :
短暂存在
从 03日的 21点(UTC)到 04日的 03点(UTC)
能見度: 5000

TAF: OTBD 031103Z 0312/0418 04009KT 8000 NSC BECMG 0318/0320 32007KT PROB30 TEMPO 0321/0403 5000 HZ

超过4000个机场的气象观测和天气预报(METAR&TAF报告)。

可查询的气象台以黄色和红色小点在地图上表示。

将鼠标移到小点上方,可查看气象台名称。

然后点击查看天气观测和预报。

如需切换地图:点击带黑十字的绿色按钮放大地图;点击带横线的绿色按钮缩小地图;或者点击绿色箭头查看邻近地区的地图。


METAR-TAF: